Погода Дохана неделю

Доха, Катар

04 - 10 сентября
  • 04сентября
    Сегодня
    +31°
    +40°
    Ясно и безоблачно
    ВремяПогодаТемператураВлажностьДавлениеВетер, м/сВероятность осадков
    00:00Ясно и безоблачно+33°C63 %750 мм0.5 м/с0 %
    03:00Практически безоблачно+31°C70 %750 мм1.2 м/с0 %
    06:00Ясно и безоблачно+31°C67 %750 мм1.6 м/с0 %
    09:00Ясно и безоблачно+38°C20 %751 мм0.3 м/с0 %
    12:00Ясно и безоблачно+40°C29 %750 мм3.2 м/с0 %
    15:00Ясно и безоблачно+38°C33 %750 мм3.9 м/с0 %
    18:00Небольшая облачность+36°C49 %750 мм2.9 м/с0 %
    21:00Ясно и безоблачно+34°C62 %751 мм2.0 м/с0 %
  • 05сентября
    Суббота
    +31°
    +40°
    Ясно и безоблачно
    ВремяПогодаТемператураВлажностьДавлениеВетер, м/сВероятность осадков
    00:00Ясно и безоблачно+32°C72 %751 мм3.5 м/с0 %
    03:00Ясно и безоблачно+32°C75 %750 мм3.2 м/с0 %
    06:00Ясно и безоблачно+32°C80 %752 мм1.0 м/с0 %
    09:00Ясно и безоблачно+37°C49 %753 мм0.4 м/с0 %
    12:00Ясно и безоблачно+39°C40 %752 мм3.0 м/с0 %
    15:00Ясно и безоблачно+39°C39 %751 мм3.1 м/с1 %
    18:00Ясно и безоблачно+36°C61 %752 мм3.1 м/с0 %
    21:00Ясно и безоблачно+34°C72 %753 мм2.3 м/с0 %
  • 06сентября
    Воскресенье
    +32°
    +41°
    Ясно и безоблачно
    ВремяПогодаТемператураВлажностьДавлениеВетер, м/сВероятность осадков
    00:00Ясно и безоблачно+33°C75 %752 мм1.6 м/с0 %
    03:00Ясно и безоблачно+32°C80 %751 мм0.3 м/с0 %
    06:00Ясно и безоблачно+32°C76 %752 мм0.9 м/с0 %
    09:00Ясно и безоблачно+38°C43 %754 мм2.4 м/с0 %
    12:00Ясно и безоблачно+40°C41 %752 мм2.9 м/с0 %
    15:00Ясно и безоблачно+40°C39 %751 мм3.6 м/с7 %
    18:00Ясно и безоблачно+37°C55 %752 мм2.1 м/с0 %
    21:00Ясно и безоблачно+35°C65 %753 мм2.4 м/с0 %
  • 07сентября
    Понедельник
    +33°
    +44°
    Ясно и безоблачно
    ВремяПогодаТемператураВлажностьДавлениеВетер, м/сВероятность осадков
    00:00Ясно и безоблачно+34°C63 %752 мм1.0 м/с0 %
    03:00Ясно и безоблачно+33°C73 %752 мм0.3 м/с0 %
    06:00Ясно и безоблачно+33°C77 %753 мм2.1 м/с0 %
    09:00Ясно и безоблачно+38°C42 %754 мм2.0 м/с0 %
    12:00Ясно и безоблачно+42°C20 %752 мм2.2 м/с0 %
    15:00Ясно и безоблачно+43°C23 %751 мм2.1 м/с0 %
    18:00Ясно и безоблачно+39°C40 %751 мм1.9 м/с3 %
    21:00Ясно и безоблачно+37°C44 %752 мм1.8 м/с0 %
  • 08сентября
    Вторник
    +33°
    +44°
    Практически безоблачно
    ВремяПогодаТемператураВлажностьДавлениеВетер, м/сВероятность осадков
    00:00Ясно и безоблачно+35°C46 %751 мм1.5 м/с0 %
    03:00Ясно и безоблачно+34°C52 %751 мм2.1 м/с0 %
    06:00Ясно и безоблачно+33°C55 %751 мм3.2 м/с0 %
    09:00Ясно и безоблачно+40°C24 %753 мм2.5 м/с0 %
    12:00Ясно и безоблачно+43°C14 %751 мм1.3 м/с0 %
    15:00Практически безоблачно+42°C29 %750 мм2.2 м/с0 %
    18:00Ясно и безоблачно+38°C46 %750 мм1.7 м/с5 %
    21:00Ясно и безоблачно+36°C60 %751 мм2.7 м/с0 %
  • 09сентября
    Среда
    +32°
    +44°
    Ясно и безоблачно
    ВремяПогодаТемператураВлажностьДавлениеВетер, м/сВероятность осадков
    03:00Ясно и безоблачно+34°C50 %750 мм2.4 м/с0 %
    09:00Ясно и безоблачно+40°C17 %752 мм1.8 м/с0 %
    15:00Ясно и безоблачно+43°C21 %750 мм1.6 м/с0 %
    21:00Ясно и безоблачно+36°C53 %752 мм2.6 м/с0 %
  • 10сентября
    Четверг
    +31°
    +44°
    Ясно и безоблачно
    ВремяПогодаТемператураВлажностьДавлениеВетер, м/сВероятность осадков
    03:00Ясно и безоблачно+33°C69 %750 мм1.1 м/с0 %
    09:00Ясно и безоблачно+40°C44 %754 мм3.5 м/с0 %
    15:00Ясно и безоблачно+43°C33 %752 мм5.5 м/с0 %
    21:00Ясно и безоблачно+36°C50 %753 мм3.0 м/с0 %
Мы используем cookies
Соглашаюсь